createdAt,value
2023-09-23T00:01:48.684Z,16.75
2023-09-23T00:06:51.911Z,16.98
2023-09-23T00:11:54.767Z,17.23
2023-09-23T00:16:56.980Z,17.70
2023-09-23T00:21:59.190Z,18.33
2023-09-23T00:27:02.114Z,18.85
2023-09-23T00:32:05.642Z,20.20
2023-09-23T00:37:09.617Z,23.23
2023-09-23T00:42:13.317Z,29.23
2023-09-23T00:47:16.731Z,31.55
2023-09-23T00:52:19.250Z,33.83
2023-09-23T00:57:22.471Z,31.08
2023-09-23T01:02:24.844Z,25.75
2023-09-23T01:07:28.619Z,27.25
2023-09-23T01:12:31.565Z,29.10
2023-09-23T01:17:33.813Z,29.17
2023-09-23T01:27:40.160Z,35.47
2023-09-23T01:37:57.144Z,38.80
2023-09-23T01:42:59.458Z,39.00
2023-09-23T01:48:02.577Z,36.83
2023-09-23T01:53:05.414Z,37.80
2023-09-23T01:58:08.546Z,39.08
2023-09-23T02:03:11.742Z,41.20
2023-09-23T02:08:14.071Z,44.92
2023-09-23T02:13:16.576Z,45.92
2023-09-23T02:18:18.813Z,46.22
2023-09-23T02:23:22.904Z,54.67
2023-09-23T02:28:25.462Z,52.50
2023-09-23T02:33:27.671Z,60.05
2023-09-23T02:38:30.546Z,63.63
2023-09-23T02:43:32.792Z,72.10
2023-09-23T02:48:35.098Z,80.68
2023-09-23T02:58:41.585Z,61.10
2023-09-23T03:03:44.722Z,52.78
2023-09-23T03:08:55.143Z,54.17
2023-09-23T03:13:57.423Z,51.80
2023-09-23T03:19:16.539Z,54.53
2023-09-23T03:24:19.435Z,53.97
2023-09-23T03:29:23.751Z,51.10
2023-09-23T03:34:27.801Z,57.85
2023-09-23T03:39:29.971Z,49.30
2023-09-23T03:44:32.183Z,52.40
2023-09-23T03:49:34.347Z,58.25
2023-09-23T03:54:37.223Z,63.75
2023-09-23T03:59:40.469Z,63.35
2023-09-23T04:04:43.957Z,59.03
2023-09-23T04:09:46.469Z,61.95
2023-09-23T04:19:50.998Z,51.13
2023-09-23T04:24:53.175Z,47.40
2023-09-23T04:29:55.363Z,50.88
2023-09-23T04:34:57.562Z,54.55
2023-09-23T04:39:59.763Z,68.18
2023-09-23T04:45:02.115Z,56.75
2023-09-23T04:55:08.433Z,54.47
2023-09-23T05:05:13.870Z,57.58
2023-09-23T05:10:16.245Z,49.08
2023-09-23T05:15:18.428Z,44.30
2023-09-23T05:20:21.394Z,41.28
2023-09-23T05:25:25.625Z,34.63
2023-09-23T05:30:27.906Z,33.95
2023-09-23T05:35:30.741Z,43.22
2023-09-23T05:40:37.477Z,37.47
2023-09-23T05:45:39.618Z,36.88
2023-09-23T05:50:41.802Z,44.72
2023-09-23T05:55:45.069Z,52.38
2023-09-23T06:00:48.101Z,37.20
2023-09-23T06:05:50.564Z,37.70
2023-09-23T06:10:53.410Z,33.63
2023-09-23T06:16:03.096Z,35.78
2023-09-23T06:21:07.601Z,30.45
2023-09-23T06:26:11.526Z,34.33
2023-09-23T06:31:13.820Z,32.88
2023-09-23T06:36:16.034Z,30.70
2023-09-23T06:41:18.601Z,28.55
2023-09-23T06:46:21.152Z,30.50
2023-09-23T06:51:23.383Z,33.50
2023-09-23T06:56:26.549Z,32.10
2023-09-23T07:01:28.897Z,27.10
2023-09-23T07:11:33.374Z,24.02
2023-09-23T07:16:35.674Z,21.80
2023-09-23T07:26:40.052Z,18.15
2023-09-23T07:36:44.367Z,19.40
2023-09-23T07:41:46.777Z,21.58
2023-09-23T07:46:49.086Z,22.65
2023-09-23T07:56:53.346Z,20.77
2023-09-23T08:06:57.810Z,17.75
2023-09-23T08:11:59.937Z,20.13
2023-09-23T08:22:04.539Z,17.63
2023-09-23T08:27:07.133Z,22.60
2023-09-23T08:32:09.321Z,17.77
2023-09-23T08:37:11.536Z,17.52
2023-09-23T08:47:19.400Z,17.60
2023-09-23T08:52:22.062Z,16.67
2023-09-23T08:57:24.443Z,17.75
2023-09-23T09:02:27.392Z,19.75
2023-09-23T09:07:38.423Z,19.30
2023-09-23T09:12:40.577Z,18.35
2023-09-23T09:22:48.198Z,18.70
2023-09-23T09:33:00.206Z,17.88
2023-09-23T09:38:17.397Z,15.73
2023-09-23T09:43:21.998Z,17.63
2023-09-23T09:48:27.556Z,16.83
2023-09-23T09:53:30.093Z,19.05
2023-09-23T09:58:41.661Z,20.00
2023-09-23T10:03:44.761Z,21.40
2023-09-23T10:08:49.840Z,16.02
2023-09-23T10:13:51.965Z,16.10
2023-09-23T10:23:58.503Z,15.63
2023-09-23T10:29:04.850Z,18.23
2023-09-23T10:34:10.074Z,15.52
2023-09-23T10:39:16.783Z,17.02
2023-09-23T10:44:28.029Z,16.05
2023-09-23T10:49:30.290Z,16.00
2023-09-23T10:54:32.397Z,15.88
2023-09-23T10:59:35.660Z,17.27
2023-09-23T11:04:38.145Z,16.85
2023-09-23T11:09:40.496Z,17.00
2023-09-23T11:14:44.167Z,20.40
2023-09-23T11:20:02.544Z,20.17
2023-09-23T11:25:10.390Z,20.05
2023-09-23T11:30:13.241Z,19.00
2023-09-23T11:35:15.613Z,14.82
2023-09-23T11:40:18.199Z,14.82
2023-09-23T11:45:21.291Z,14.45
2023-09-23T11:50:25.246Z,15.45
2023-09-23T11:55:28.438Z,14.50
2023-09-23T12:00:30.868Z,13.07
2023-09-23T12:05:33.448Z,15.45
2023-09-23T12:10:35.615Z,13.00
2023-09-23T12:20:39.969Z,11.35
2023-09-23T12:25:43.152Z,12.98
2023-09-23T12:30:45.437Z,13.85
2023-09-23T12:35:48.175Z,15.00
2023-09-23T12:40:50.589Z,13.50
2023-09-23T12:45:52.770Z,15.18
2023-09-23T12:50:54.919Z,14.05
2023-09-23T12:55:57.227Z,13.70
2023-09-23T13:00:59.681Z,13.27
2023-09-23T13:06:02.322Z,13.88
2023-09-23T13:11:04.585Z,13.32
2023-09-23T13:16:08.778Z,12.45
2023-09-23T13:21:11.346Z,12.85
2023-09-23T13:26:13.621Z,12.98
2023-09-23T13:31:15.980Z,12.15
2023-09-23T13:36:18.238Z,14.13
2023-09-23T13:41:20.545Z,13.40
2023-09-23T13:46:22.780Z,14.18
2023-09-23T13:51:25.102Z,13.80
2023-09-23T13:56:27.511Z,14.40
2023-09-23T14:01:30.595Z,14.88
2023-09-23T14:06:32.738Z,13.65
2023-09-23T14:11:34.957Z,14.10
2023-09-23T14:16:37.269Z,14.38
2023-09-23T14:21:39.472Z,13.93
2023-09-23T14:26:41.771Z,15.43
2023-09-23T14:31:43.915Z,13.90
2023-09-23T14:36:46.102Z,16.38
2023-09-23T14:41:48.245Z,15.77
2023-09-23T14:46:50.760Z,15.32
2023-09-23T14:51:52.942Z,16.65
2023-09-23T14:56:55.040Z,20.63
2023-09-23T15:01:57.531Z,18.58
2023-09-23T15:07:00.940Z,17.15
2023-09-23T15:12:03.235Z,14.55
2023-09-23T15:17:05.367Z,12.82
2023-09-23T15:22:07.496Z,12.15
2023-09-23T15:32:12.353Z,12.82
2023-09-23T15:37:14.582Z,13.30
2023-09-23T15:42:16.771Z,12.80
2023-09-23T15:52:22.920Z,12.93
2023-09-23T15:57:25.140Z,12.70
2023-09-23T16:07:29.575Z,14.30
2023-09-23T16:17:33.806Z,13.88
2023-09-23T16:22:37.010Z,13.43
2023-09-23T16:27:41.741Z,13.40
2023-09-23T16:32:43.960Z,13.40
2023-09-23T16:37:46.708Z,14.32
2023-09-23T16:42:48.850Z,13.43
2023-09-23T16:52:54.189Z,13.57
2023-09-23T16:57:56.943Z,13.93
2023-09-23T17:02:59.869Z,13.75
2023-09-23T17:08:02.263Z,16.83
2023-09-23T17:13:04.557Z,15.38
2023-09-23T17:18:07.513Z,14.98
2023-09-23T17:23:11.030Z,14.68
2023-09-23T17:28:14.007Z,15.20
2023-09-23T17:38:18.818Z,15.35
2023-09-23T17:43:21.030Z,16.17
2023-09-23T17:53:25.557Z,16.60
2023-09-23T17:58:27.925Z,17.83
2023-09-23T18:03:33.968Z,17.15
2023-09-23T18:08:36.716Z,14.30
2023-09-23T18:13:41.043Z,14.95
2023-09-23T18:18:47.344Z,14.18
2023-09-23T18:23:49.964Z,14.38
2023-09-23T18:28:52.663Z,14.93
2023-09-23T18:33:56.747Z,14.75
2023-09-23T18:38:59.197Z,16.92
2023-09-23T18:44:02.017Z,16.00
2023-09-23T18:49:04.333Z,16.27
2023-09-23T18:54:06.729Z,17.55
2023-09-23T18:59:09.051Z,17.25
2023-09-23T19:04:11.392Z,15.45
2023-09-23T19:09:14.326Z,16.20
2023-09-23T19:14:17.594Z,16.48
2023-09-23T19:19:19.732Z,19.10
2023-09-23T19:24:22.665Z,18.80
2023-09-23T19:29:25.527Z,20.08
2023-09-23T19:34:28.065Z,18.27
2023-09-23T19:39:32.496Z,18.60
2023-09-23T19:44:35.072Z,18.45
2023-09-23T19:49:38.209Z,17.50
2023-09-23T19:54:41.154Z,17.73
2023-09-23T19:59:43.821Z,18.08
2023-09-23T20:04:47.051Z,17.98
2023-09-23T20:09:49.243Z,18.80
2023-09-23T20:14:51.540Z,19.63
2023-09-23T20:19:53.946Z,19.92
2023-09-23T20:24:56.140Z,20.95
2023-09-23T20:30:07.160Z,21.23
2023-09-23T20:35:12.825Z,21.80
2023-09-23T20:40:16.835Z,20.88
2023-09-23T20:45:19.200Z,22.13
2023-09-23T20:50:22.814Z,21.65
2023-09-23T20:55:25.171Z,22.13
2023-09-23T21:05:29.565Z,22.33
2023-09-23T21:10:32.211Z,22.35
2023-09-23T21:15:34.431Z,23.85
2023-09-23T21:20:38.185Z,23.67
2023-09-23T21:25:40.755Z,24.85
2023-09-23T21:30:42.981Z,27.10
2023-09-23T21:35:45.839Z,26.40
2023-09-23T21:40:48.128Z,26.52
2023-09-23T21:45:51.452Z,27.40
2023-09-23T21:51:02.354Z,25.33
2023-09-23T21:56:04.791Z,26.75
2023-09-23T22:01:08.578Z,25.90
2023-09-23T22:06:13.107Z,29.83
2023-09-23T22:11:15.313Z,29.08
2023-09-23T22:16:17.862Z,30.05
2023-09-23T22:21:20.741Z,25.27
2023-09-23T22:26:24.573Z,25.38
2023-09-23T22:31:27.813Z,26.88
2023-09-23T22:36:30.637Z,28.73
2023-09-23T22:41:32.853Z,26.42
2023-09-23T22:51:38.994Z,25.65
2023-09-23T22:56:41.510Z,26.33
2023-09-23T23:01:44.988Z,26.27
2023-09-23T23:06:48.148Z,26.65
2023-09-23T23:11:50.482Z,25.70
2023-09-23T23:16:52.696Z,25.90
2023-09-23T23:21:54.895Z,23.98
2023-09-23T23:26:57.119Z,25.38
2023-09-23T23:37:03.678Z,25.65
2023-09-23T23:42:06.542Z,26.92
2023-09-23T23:47:09.281Z,26.23
2023-09-23T23:52:11.438Z,27.77
2023-09-23T23:57:17.407Z,30.92
